Nearby METAR Reports

KLNK - Lincoln, Nebraska, USA
Distance from station: WNW 8mi, 13km
Updated: Thu, 24-May-2018 6:54am CDT
Clear
Clear
 Wind from S
Wind: S 9 mph , 15 km/h
Temperature: 68°F , 20°C
Dew Point: 64°F , 18°C
Humidity: 88%
Barometer: 30.04 inHg , 1017.3 hPa
Clouds: Clear
Visibility: 9 miles , 14 km
2018/05/24 11:54 KLNK 241154Z 17008KT 9SM CLR 20/18 A3004 RMK AO2 SLP160 T02000178 10239 20194 53004
KAHQ - Wahoo, Nebraska, USA
Distance from station: N 31mi, 49km
Updated: Thu, 24-May-2018 6:55am CDT
Clear
Clear
 Wind from SSE
Wind: SSE 7 mph , 11 km/h
Temperature: 70°F , 21°C
Dew Point: 64°F , 18°C
Humidity: 83%
Barometer: 30.04 inHg , 1017.3 hPa
Clouds: Clear
Visibility: 10 miles , 16 km
2018/05/24 11:55 KAHQ 241155Z AUTO 16006KT 10SM CLR 21/18 A3004 RMK AO2 T02050182 10236 20200
 
KBIE - Beatrice Municip, Nebraska, USA
Distance from station: S 36mi, 57km
Updated: Thu, 24-May-2018 6:55am CDT
Clear
Clear
 Wind from SSE
Wind: SSE 7 mph , 11 km/h
Temperature: 68°F , 20°C
Dew Point: 66°F , 19°C
Humidity: 94%
Barometer: 30.04 inHg , 1017.3 hPa
Clouds: Clear
Visibility: 10 miles , 16 km
2018/05/24 11:55 KBIE 241155Z AUTO 15006KT 10SM CLR 20/19 A3004 RMK AO2 T02020190 10240 20199
KMLE - Omaha/Millard, Nebraska, USA
Distance from station: NE 39mi, 63km
Updated: Thu, 24-May-2018 6:55am CDT
Clear
Clear
 Wind from SE
Wind: SE 7 mph , 11 km/h
Temperature: 72°F , 22°C
Dew Point: 68°F , 20°C
Humidity: 88%
Barometer: 30.04 inHg , 1017.3 hPa
Clouds: Clear
Visibility: 10 miles , 16 km
2018/05/24 11:55 KMLE 241155Z AUTO 14006KT 10SM CLR 22/20 A3004 RMK AO2 70001 T02150195 10244 20202
 
KPMV - Plattsmouth Muni, Nebraska, USA
Distance from station: ENE 39mi, 63km
Updated: Thu, 24-May-2018 6:55am CDT
Clear
Clear
 Wind from SSE
Wind: SSE 9 mph , 15 km/h
Temperature: 68°F , 20°C
Dew Point: 66°F , 19°C
Humidity: 94%
Barometer: 30.05 inHg , 1017.6 hPa
Clouds: Clear
Visibility: 10 miles , 16 km
2018/05/24 11:55 KPMV 241155Z AUTO 15008KT 10SM CLR 20/19 A3005 RMK AO2 7//// T02020186 10240 20199
KAFK - Nebraska City, Nebraska, USA
Distance from station: ESE 43mi, 69km
Updated: Thu, 24-May-2018 6:55am CDT
Clear
Clear
 Wind from S
Wind: S 9 mph , 15 km/h
Temperature: 70°F , 21°C
Dew Point: 68°F , 20°C
Humidity: 94%
Barometer: 30.05 inHg , 1017.6 hPa
Clouds: Clear
Visibility: 10 miles , 16 km
2018/05/24 11:55 KAFK 241155Z AUTO 17008KT 10SM CLR 21/20 A3005 RMK AO2 T02060204 10232 20203
 
KOFF - Offutt Afb/Belle, Nebraska, USA
Distance from station: ENE 44mi, 70km
Updated: Thu, 24-May-2018 6:56am CDT
Clear
Clear
 Wind from SE
Wind: SE 7 mph , 11 km/h
Temperature: 68°F , 20°C
Dew Point: 66°F , 19°C
Humidity: 94%
Barometer: 30.04 inHg , 1017.3 hPa
Clouds: Clear
Visibility: 10 miles , 16 km
2018/05/24 11:56 KOFF 241156Z AUTO 13006KT 10SM CLR 20/19 A3004 RMK AO2 SLP168 T02020188 10218 20183 53000 $
KFET - Fremont Muni Arp, Nebraska, USA
Distance from station: N 46mi, 74km
Updated: Thu, 24-May-2018 6:55am CDT
Clear
Clear
 Wind from SSE
Wind: SSE 9 mph , 15 km/h
Temperature: 72°F , 22°C
Dew Point: 66°F , 19°C
Humidity: 83%
Barometer: 30.04 inHg , 1017.3 hPa
Clouds: Clear
Visibility: 10 miles , 16 km
2018/05/24 11:55 KFET 241155Z AUTO 16008KT 10SM CLR 22/19 A3004 RMK AO2 T02160187 10255 20215
 
KBTA - Blair Muni, Nebraska, USA
Distance from station: NNE 51mi, 82km
Updated: Thu, 24-May-2018 6:55am CDT
Clear
Clear
 Wind from SSE
Wind: SSE 10 mph , 17 km/h
Temperature: 70°F , 21°C
Dew Point: 66°F , 19°C
Humidity: 88%
Barometer: 30.04 inHg , 1017.3 hPa
Clouds: Clear
Visibility: 10 miles , 16 km
2018/05/24 11:55 KBTA 241155Z AUTO 15009KT 10SM CLR 21/19 A3004 RMK AO2 T02130186 10250 20212
KJYR - York, Nebraska, USA
Distance from station: W 52mi, 84km
Updated: Thu, 24-May-2018 6:55am CDT
Clear
Clear
 Wind from SSE
Wind: SSE 5 mph , 7 km/h
Temperature: 66°F , 19°C
Dew Point: 66°F , 19°C
Humidity: 100%
Barometer: 30.03 inHg , 1016.9 hPa
Clouds: Clear
Visibility: 9 miles , 14 km
2018/05/24 11:55 KJYR 241155Z AUTO 15004KT 9SM CLR 19/19 A3003 RMK AO2
 
KOMA - Omaha/Eppley, Nebraska, USA
Distance from station: NE 53mi, 85km
Updated: Thu, 24-May-2018 6:52am CDT
Mostly Cloudy
Mostly Cloudy
 Wind from SSE
Wind: SSE 8 mph , 13 km/h
Temperature: 72°F , 22°C
Dew Point: 64°F , 18°C
Humidity: 78%
Barometer: 30.04 inHg , 1017.3 hPa
Clouds: Mostly Cloudy
Visibility: 10 miles , 16 km
Cloud details: Mostly Cloudy 25000 ft
2018/05/24 11:52 KOMA 241152Z 15007KT 10SM BKN250 22/18 A3004 RMK AO2 SLP163 T02170183 10250 20206 53001
KOLU - Columbus Muni, Nebraska, USA
Distance from station: NW 58mi, 93km
Updated: Thu, 24-May-2018 6:56am CDT
Partly Cloudy
Partly Cloudy
 Wind from SSW
Wind: SSW 3 mph , 6 km/h
Temperature: 70°F , 21°C
Dew Point: 64°F , 18°C
Humidity: 83%
Barometer: 30.05 inHg , 1017.6 hPa
Clouds: Partly Cloudy
Visibility: 10 miles , 16 km
Cloud details: Partly Cloudy 9000 ft
2018/05/24 11:56 KOLU 241156Z AUTO 20003KT 10SM SCT090 21/18 A3005 RMK AO2 SLP163 T02110178 10233 20211 53014